Stafford Township, New Jersey
Current Conditions -  °F | °C
As of 2:15 AM on Sunday 26 Oct 2014 (Local Time) from KMJX Reporting Station
Overcast Overcast  
Wind Chill: 57°   Ceiling: 8500
Heat Index: 57°   Visibility: 10mi
Dew Point: 45°   Wind: 6mph
Humidity: 63%   Direction: 250°WSW
Pressure: 29.59"   Gusts: NA
Location:  39.7102°N, 74.2577°W
Report Text: KMJX 260615Z AUTO 25005KT 10SM OVC085 14/07 A2959 RMK AO1
Loading
Personal Weather Stations






























Interactive Weather Map
Tropical Storm Tracking
New forecast layout! Learn more

10-Day Weather Forecast

Advertisements
Track Severe Weather on mobile